Wetterdaten: Woche 11.01.21 - 17.01.21 (KW2)
Datum Zeit Temp. A. Feuchte A. Luftdruck Regen Wind Richtung Taupunkt Windchill Windben
11.01.2021 00:00 -3,8 C 83 % 1023,3 hPa 0,0 l/m 0,0 km/h N -6,3 C -3,8 C 1,2 km/h
11.01.2021 01:00 -4,3 C 84 % 1023,0 hPa 0,0 l/m 0,2 km/h N -6,6 C -4,3 C 4,0 km/h
11.01.2021 02:00 -2,8 C 83 % 1022,9 hPa 0,0 l/m 1,8 km/h N -5,2 C -2,8 C 8,9 km/h
11.01.2021 03:00 -2,4 C 84 % 1022,5 hPa 0,0 l/m 0,7 km/h N -4,8 C -2,4 C 6,8 km/h
11.01.2021 04:00 -2,6 C 83 % 1022,3 hPa 0,0 l/m 0,1 km/h N -5,1 C -2,6 C 3,2 km/h
11.01.2021 05:00 -3,1 C 83 % 1022,4 hPa 0,0 l/m 0,3 km/h N -5,6 C -3,1 C 3,2 km/h
11.01.2021 06:00 -3,1 C 83 % 1022,6 hPa 0,0 l/m 0,7 km/h N -5,6 C -3,1 C 6,8 km/h
11.01.2021 07:00 -2,7 C 83 % 1022,9 hPa 0,0 l/m 1,7 km/h N -5,2 C -2,7 C 10,5 km/h
11.01.2021 08:00 -2,0 C 82 % 1023,1 hPa 0,0 l/m 2,7 km/h N -4,7 C -2,0 C 13,3 km/h
11.01.2021 09:00 -1,5 C 81 % 1023,5 hPa 0,0 l/m 3,0 km/h N -4,5 C -1,5 C 12,1 km/h
11.01.2021 10:00 -1,0 C 79 % 1023,8 hPa 0,0 l/m 6,3 km/h N -4,1 C -1,9 C 15,7 km/h
11.01.2021 11:00 -0,4 C 76 % 1023,7 hPa 0,0 l/m 7,2 km/h N -4,1 C -1,3 C 19,3 km/h
11.01.2021 12:00 -0,0 C 74 % 1023,1 hPa 0,0 l/m 4,8 km/h N -4,1 C -0,4 C 15,7 km/h
11.01.2021 13:00 0,3 C 72 % 1022,5 hPa 0,0 l/m 3,6 km/h N -4,2 C 0,3 C 12,5 km/h
11.01.2021 14:00 0,6 C 71 % 1022,1 hPa 0,0 l/m 3,7 km/h N -4,0 C 0,6 C 11,7 km/h
11.01.2021 15:00 0,7 C 70 % 1022,0 hPa 0,0 l/m 2,6 km/h N -4,2 C 0,7 C 9,7 km/h
11.01.2021 16:00 -0,2 C 71 % 1022,0 hPa 0,0 l/m 0,2 km/h N -4,9 C -0,2 C 3,2 km/h
11.01.2021 17:00 -1,7 C 73 % 1021,9 hPa 0,0 l/m 0,0 km/h N -6,0 C -1,7 C 0,0 km/h
11.01.2021 18:00 -3,2 C 76 % 1022,0 hPa 0,0 l/m 0,0 km/h N -6,9 C -3,2 C 0,0 km/h
11.01.2021 19:00 -4,0 C 80 % 1021,9 hPa 0,0 l/m 0,0 km/h N -7,0 C -4,0 C 0,0 km/h
11.01.2021 20:00 -3,8 C 81 % 1021,6 hPa 0,0 l/m 0,0 km/h N -6,6 C -3,8 C 0,0 km/h
11.01.2021 21:00 -4,3 C 81 % 1021,4 hPa 0,0 l/m 0,0 km/h N -7,1 C -4,3 C 0,0 km/h
11.01.2021 22:00 -5,4 C 81 % 1021,1 hPa 0,0 l/m 0,0 km/h N -8,2 C -5,4 C 0,0 km/h
11.01.2021 23:00 -6,3 C 82 % 1020,8 hPa 0,0 l/m 0,0 km/h N -8,9 C -6,3 C 0,0 km/h
12.01.2021 00:00 -7,0 C 82 % 1020,3 hPa 0,0 l/m 0,0 km/h N -9,5 C -7,0 C 0,0 km/h
12.01.2021 01:00 -7,5 C 83 % 1020,0 hPa 0,0 l/m 0,0 km/h N -9,9 C -7,5 C 0,0 km/h
12.01.2021 02:00 -7,4 C 83 % 1019,9 hPa 0,0 l/m 0,2 km/h N -9,7 C -7,4 C 4,0 km/h
12.01.2021 03:00 -7,0 C 84 % 1019,3 hPa 0,0 l/m 0,0 km/h N -9,3 C -7,0 C 0,4 km/h
12.01.2021 04:00 -7,6 C 84 % 1018,8 hPa 0,0 l/m 0,0 km/h N -9,8 C -7,6 C 0,0 km/h
12.01.2021 05:00 -8,1 C 84 % 1018,2 hPa 0,0 l/m 0,0 km/h N -10,3 C -8,1 C 0,0 km/h
12.01.2021 06:00 -8,4 C 84 % 1017,6 hPa 0,0 l/m 0,0 km/h N -10,6 C -8,4 C 0,0 km/h
12.01.2021 07:00 -7,7 C 84 % 1017,4 hPa 0,0 l/m 0,0 km/h N -9,9 C -7,7 C 0,0 km/h
12.01.2021 08:00 -6,5 C 84 % 1017,0 hPa 0,0 l/m 0,0 km/h N -8,8 C -6,5 C 0,8 km/h
12.01.2021 09:00 -5,0 C 83 % 1016,6 hPa 0,0 l/m 0,0 km/h N -7,4 C -5,0 C 0,4 km/h
12.01.2021 10:00 -3,6 C 84 % 1016,2 hPa 0,0 l/m 0,0 km/h N -5,9 C -3,6 C 0,0 km/h
12.01.2021 11:00 -2,3 C 84 % 1015,1 hPa 0,0 l/m 0,0 km/h N -4,7 C -2,3 C 0,8 km/h
12.01.2021 12:00 -1,5 C 81 % 1013,8 hPa 0,0 l/m 0,1 km/h N -4,3 C -1,5 C 2,4 km/h
12.01.2021 13:00 -1,0 C 77 % 1012,6 hPa 0,0 l/m 0,1 km/h N -4,5 C -1,0 C 4,0 km/h
12.01.2021 14:00 -0,9 C 77 % 1011,8 hPa 0,0 l/m 0,0 km/h N -4,3 C -0,9 C 1,6 km/h
12.01.2021 15:00 -0,6 C 78 % 1011,0 hPa 0,0 l/m 0,0 km/h N -3,9 C -0,6 C 0,0 km/h
12.01.2021 16:00 -0,5 C 79 % 1010,3 hPa 0,0 l/m 0,0 km/h N -3,7 C -0,5 C 0,4 km/h
12.01.2021 17:00 -0,6 C 81 % 1009,7 hPa 0,0 l/m 0,0 km/h N -3,5 C -0,6 C 1,6 km/h
12.01.2021 18:00 -0,6 C 83 % 1009,1 hPa 0,0 l/m 0,1 km/h N -3,2 C -0,6 C 2,8 km/h
12.01.2021 19:00 3,7 C 82 % 1008,3 hPa 0,3 l/m 3,2 km/h N 0,9 C 3,7 C 18,1 km/h
12.01.2021 20:00 4,9 C 79 % 1008,0 hPa 0,0 l/m 3,7 km/h N 1,6 C 4,9 C 21,7 km/h
12.01.2021 21:00 4,7 C 80 % 1008,1 hPa 0,5 l/m 6,3 km/h N 1,5 C 4,2 C 28,6 km/h
12.01.2021 22:00 3,9 C 82 % 1008,0 hPa 0,5 l/m 4,9 km/h N 1,1 C 3,9 C 26,9 km/h
12.01.2021 23:00 3,9 C 81 % 1008,5 hPa 0,3 l/m 5,6 km/h N 1,0 C 3,7 C 27,0 km/h
13.01.2021 00:00 3,7 C 81 % 1009,0 hPa 0,0 l/m 5,2 km/h N 0,8 C 3,7 C 17,3 km/h
13.01.2021 01:00 3,7 C 80 % 1009,6 hPa 0,0 l/m 4,3 km/h N 0,5 C 3,7 C 21,3 km/h
13.01.2021 02:00 3,3 C 80 % 1010,7 hPa 0,3 l/m 3,7 km/h N 0,2 C 3,3 C 17,3 km/h
13.01.2021 03:00 2,5 C 83 % 1011,1 hPa 0,0 l/m 1,6 km/h N -0,2 C 2,5 C 8,4 km/h
13.01.2021 04:00 2,4 C 82 % 1011,6 hPa 0,0 l/m 2,9 km/h N -0,4 C 2,4 C 12,4 km/h
13.01.2021 05:00 2,0 C 74 % 1012,6 hPa 0,0 l/m 3,6 km/h N -2,1 C 2,0 C 21,3 km/h
13.01.2021 06:00 1,6 C 74 % 1012,7 hPa 0,0 l/m 1,9 km/h N -2,5 C 1,6 C 9,7 km/h
13.01.2021 07:00 2,2 C 71 % 1012,8 hPa 0,0 l/m 5,6 km/h N -2,5 C 2,2 C 25,0 km/h
13.01.2021 08:00 2,3 C 69 % 1013,2 hPa 0,0 l/m 5,7 km/h N -2,7 C 2,3 C 24,5 km/h
13.01.2021 09:00 2,6 C 66 % 1013,7 hPa 0,0 l/m 7,3 km/h N -3,1 C 1,7 C 26,1 km/h
13.01.2021 10:00 3,2 C 63 % 1013,6 hPa 0,3 l/m 9,8 km/h N -3,3 C 0,2 C 31,8 km/h
13.01.2021 11:00 3,5 C 63 % 1013,1 hPa 0,0 l/m 10,5 km/h N -2,8 C 0,1 C 33,4 km/h
13.01.2021 12:00 3,8 C 62 % 1012,7 hPa 0,0 l/m 12,1 km/h N -2,9 C -0,7 C 37,8 km/h
13.01.2021 13:00 3,4 C 65 % 1012,8 hPa 0,0 l/m 13,7 km/h N -2,6 C -2,1 C 40,3 km/h
13.01.2021 14:00 3,0 C 64 % 1013,3 hPa 0,0 l/m 10,5 km/h N -3,1 C -0,4 C 35,0 km/h
13.01.2021 15:00 2,7 C 66 % 1013,2 hPa 0,0 l/m 11,4 km/h N -3,1 C -1,6 C 35,0 km/h
13.01.2021 16:00 2,6 C 66 % 1012,7 hPa 0,0 l/m 14,7 km/h N -3,1 C -3,7 C 44,3 km/h
13.01.2021 17:00 2,6 C 64 % 1012,1 hPa 0,0 l/m 10,4 km/h N -3,6 C -0,8 C 31,4 km/h
13.01.2021 18:00 3,0 C 61 % 1012,0 hPa 0,0 l/m 11,2 km/h N -3,7 C -1,0 C 35,0 km/h
13.01.2021 19:00 3,0 C 63 % 1012,0 hPa 0,0 l/m 8,9 km/h N -3,5 C 0,7 C 27,0 km/h
13.01.2021 20:00 2,7 C 64 % 1011,4 hPa 0,0 l/m 7,3 km/h N -3,3 C 1,8 C 23,7 km/h
13.01.2021 21:00 2,8 C 63 % 1010,3 hPa 0,0 l/m 7,6 km/h N -3,5 C 1,5 C 31,0 km/h
13.01.2021 22:00 3,2 C 59 % 1009,4 hPa 0,0 l/m 8,5 km/h N -4,0 C 1,3 C 24,2 km/h
13.01.2021 23:00 2,9 C 61 % 1008,7 hPa 0,0 l/m 6,8 km/h N -4,0 C 2,3 C 23,3 km/h
14.01.2021 00:00 2,9 C 59 % 1007,5 hPa 0,0 l/m 6,3 km/h N -4,2 C 1,9 C 23,3 km/h
14.01.2021 01:00 2,9 C 61 % 1006,6 hPa 0,0 l/m 7,7 km/h N -3,8 C 1,6 C 24,5 km/h
14.01.2021 02:00 3,0 C 63 % 1006,2 hPa 0,0 l/m 5,8 km/h N -3,3 C 2,6 C 21,7 km/h
14.01.2021 03:00 2,7 C 68 % 1005,6 hPa 0,0 l/m 3,2 km/h N -2,7 C 2,7 C 16,9 km/h
14.01.2021 04:00 2,6 C 68 % 1005,3 hPa 0,0 l/m 6,3 km/h N -2,7 C 1,8 C 20,5 km/h
14.01.2021 05:00 1,1 C 80 % 1006,3 hPa 0,0 l/m 10,5 km/h N -2,1 C -2,7 C 26,1 km/h
14.01.2021 06:00 0,6 C 81 % 1007,0 hPa 0,0 l/m 8,4 km/h N -2,3 C -1,2 C 21,3 km/h
14.01.2021 07:00 0,5 C 74 % 1007,6 hPa 0,0 l/m 9,3 km/h N -3,7 C -2,3 C 22,9 km/h
14.01.2021 08:00 0,9 C 66 % 1008,3 hPa 0,0 l/m 11,3 km/h N -4,8 C -3,5 C 25,7 km/h
14.01.2021 09:00 0,8 C 69 % 1008,9 hPa 0,0 l/m 8,7 km/h N -4,2 C -1,3 C 21,7 km/h
14.01.2021 10:00 0,4 C 77 % 1009,7 hPa 0,0 l/m 9,6 km/h N -3,2 C -2,7 C 25,4 km/h
14.01.2021 11:00 -0,2 C 83 % 1010,3 hPa 0,0 l/m 9,5 km/h N -2,8 C -3,3 C 21,7 km/h
14.01.2021 12:00 -0,3 C 83 % 1011,1 hPa 0,0 l/m 7,9 km/h N -2,8 C -1,9 C 20,9 km/h
14.01.2021 13:00 0,2 C 83 % 1011,9 hPa 0,0 l/m 8,9 km/h N -2,4 C -2,3 C 21,7 km/h
14.01.2021 14:00 0,7 C 82 % 1012,5 hPa 0,0 l/m 9,8 km/h N -1,9 C -2,4 C 24,1 km/h
14.01.2021 15:00 0,8 C 79 % 1013,5 hPa 0,0 l/m 11,0 km/h N -2,4 C -3,3 C 25,4 km/h
14.01.2021 16:00 1,1 C 72 % 1014,6 hPa 0,0 l/m 9,5 km/h N -3,4 C -1,7 C 21,7 km/h
14.01.2021 17:00 1,4 C 71 % 1015,3 hPa 0,0 l/m 9,1 km/h N -3,4 C -1,1 C 20,9 km/h
14.01.2021 18:00 1,3 C 75 % 1016,0 hPa 0,0 l/m 11,3 km/h N -2,7 C -3,0 C 25,3 km/h
14.01.2021 19:00 1,1 C 76 % 1016,6 hPa 0,3 l/m 9,5 km/h N -2,6 C -1,7 C 21,3 km/h
14.01.2021 20:00 1,1 C 76 % 1017,0 hPa 0,0 l/m 8,8 km/h N -2,6 C -1,2 C 20,5 km/h
14.01.2021 21:00 1,1 C 76 % 1017,3 hPa 0,0 l/m 8,0 km/h N -2,7 C -0,5 C 17,7 km/h
14.01.2021 22:00 1,0 C 75 % 1017,4 hPa 0,0 l/m 6,1 km/h N -3,0 C 0,9 C 16,5 km/h
14.01.2021 23:00 1,0 C 73 % 1017,1 hPa 0,0 l/m 8,0 km/h N -3,4 C -1,0 C 19,7 km/h
15.01.2021 00:00 0,9 C 71 % 1016,8 hPa 0,0 l/m 9,5 km/h N -3,7 C -2,0 C 22,5 km/h
15.01.2021 01:00 1,1 C 70 % 1016,9 hPa 0,0 l/m 7,6 km/h N -3,8 C -0,2 C 19,3 km/h
15.01.2021 02:00 0,6 C 75 % 1017,0 hPa 0,0 l/m 7,9 km/h N -3,3 C -1,0 C 20,5 km/h
15.01.2021 03:00 0,4 C 77 % 1017,0 hPa 0,0 l/m 7,5 km/h N -3,2 C -0,7 C 19,7 km/h
15.01.2021 04:00 0,3 C 78 % 1017,3 hPa 0,0 l/m 7,3 km/h N -3,1 C -0,6 C 16,9 km/h
15.01.2021 05:00 0,4 C 78 % 1017,3 hPa 0,0 l/m 6,8 km/h N -3,0 C -0,2 C 17,7 km/h
15.01.2021 06:00 0,3 C 78 % 1017,5 hPa 0,0 l/m 6,8 km/h N -3,2 C -0,2 C 16,5 km/h
15.01.2021 07:00 0,2 C 79 % 1018,0 hPa 0,0 l/m 5,7 km/h N -3,0 C 0,2 C 13,7 km/h
15.01.2021 08:00 0,1 C 80 % 1018,5 hPa 0,0 l/m 4,8 km/h N -2,9 C 0,1 C 12,9 km/h
15.01.2021 09:00 0,1 C 82 % 1019,0 hPa 0,0 l/m 4,1 km/h N -2,6 C 0,1 C 13,3 km/h
15.01.2021 10:00 0,5 C 81 % 1019,3 hPa 0,0 l/m 6,4 km/h N -2,3 C 0,1 C 16,5 km/h
15.01.2021 11:00 0,9 C 79 % 1019,2 hPa 0,0 l/m 7,2 km/h N -2,4 C 0,0 C 18,5 km/h
15.01.2021 12:00 1,0 C 78 % 1019,0 hPa 0,3 l/m 6,0 km/h N -2,3 C 0,8 C 15,3 km/h
15.01.2021 13:00 1,2 C 77 % 1018,6 hPa 0,0 l/m 8,1 km/h N -2,4 C -0,5 C 17,3 km/h
15.01.2021 14:00 1,3 C 77 % 1018,6 hPa 0,0 l/m 6,6 km/h N -2,4 C 0,9 C 16,5 km/h
15.01.2021 15:00 1,2 C 77 % 1018,9 hPa 0,0 l/m 5,2 km/h N -2,5 C 1,0 C 15,7 km/h
15.01.2021 16:00 0,8 C 77 % 1019,3 hPa 0,0 l/m 6,4 km/h N -2,8 C 0,3 C 17,7 km/h
15.01.2021 17:00 0,4 C 80 % 1019,4 hPa 0,0 l/m 6,3 km/h N -2,7 C 0,1 C 17,3 km/h
15.01.2021 18:00 -0,0 C 82 % 1019,9 hPa 0,0 l/m 5,8 km/h N -2,7 C -0,0 C 14,9 km/h
15.01.2021 19:00 -0,3 C 83 % 1020,1 hPa 0,0 l/m 5,4 km/h N -2,8 C -0,3 C 15,3 km/h
15.01.2021 20:00 -0,4 C 83 % 1020,5 hPa 0,0 l/m 7,8 km/h N -2,9 C -1,8 C 20,1 km/h
15.01.2021 21:00 -0,6 C 83 % 1021,2 hPa 0,0 l/m 4,5 km/h N -3,1 C -0,6 C 11,7 km/h
15.01.2021 22:00 -1,0 C 83 % 1021,7 hPa 0,0 l/m 4,1 km/h N -3,5 C -1,0 C 11,3 km/h
15.01.2021 23:00 -1,3 C 83 % 1021,6 hPa 0,0 l/m 4,0 km/h N -3,8 C -1,3 C 12,5 km/h
16.01.2021 00:00 -1,3 C 83 % 1021,6 hPa 0,0 l/m 6,6 km/h N -3,8 C -1,5 C 16,1 km/h
16.01.2021 01:00 -1,4 C 83 % 1021,8 hPa 0,0 l/m 6,9 km/h N -3,9 C -2,0 C 18,5 km/h
16.01.2021 02:00 -1,6 C 84 % 1021,8 hPa 0,0 l/m 7,1 km/h N -4,0 C -2,4 C 17,3 km/h
16.01.2021 03:00 -1,6 C 83 % 1021,7 hPa 0,0 l/m 7,7 km/h N -4,1 C -3,0 C 20,1 km/h
16.01.2021 04:00 -1,4 C 82 % 1021,6 hPa 0,0 l/m 8,7 km/h N -4,2 C -3,8 C 20,5 km/h
16.01.2021 05:00 -1,3 C 79 % 1021,8 hPa 0,0 l/m 8,7 km/h N -4,4 C -3,8 C 20,9 km/h
16.01.2021 06:00 -1,4 C 78 % 1021,9 hPa 0,0 l/m 7,4 km/h N -4,7 C -2,5 C 18,1 km/h
16.01.2021 07:00 -1,3 C 76 % 1022,2 hPa 0,0 l/m 8,2 km/h N -5,0 C -3,2 C 21,3 km/h
16.01.2021 08:00 -1,8 C 78 % 1022,8 hPa 0,0 l/m 8,0 km/h N -5,1 C -3,5 C 21,7 km/h
16.01.2021 09:00 -2,0 C 81 % 1023,0 hPa 0,0 l/m 8,7 km/h N -4,9 C -4,5 C 20,9 km/h
16.01.2021 10:00 -3,1 C 82 % 1023,5 hPa 0,0 l/m 6,9 km/h N -5,7 C -3,8 C 20,9 km/h
16.01.2021 11:00 -3,2 C 83 % 1023,3 hPa 0,0 l/m 8,9 km/h N -5,7 C -5,9 C 20,5 km/h
16.01.2021 12:00 -2,5 C 79 % 1022,5 hPa 0,0 l/m 6,5 km/h N -5,7 C -3,0 C 16,5 km/h
16.01.2021 13:00 -1,8 C 68 % 1021,4 hPa 0,0 l/m 9,1 km/h N -7,0 C -4,6 C 23,7 km/h
16.01.2021 14:00 -1,5 C 65 % 1020,9 hPa 0,0 l/m 7,6 km/h N -7,3 C -2,7 C 21,7 km/h
16.01.2021 15:00 -1,4 C 64 % 1020,9 hPa 0,0 l/m 8,1 km/h N -7,4 C -3,2 C 20,9 km/h
16.01.2021 16:00 -2,0 C 64 % 1021,1 hPa 0,0 l/m 10,8 km/h N -8,0 C -6,2 C 25,8 km/h
16.01.2021 17:00 -2,3 C 62 % 1021,1 hPa 0,0 l/m 9,1 km/h N -8,7 C -5,1 C 23,3 km/h
16.01.2021 18:00 -2,6 C 68 % 1020,6 hPa 0,0 l/m 5,6 km/h N -7,8 C -2,8 C 16,5 km/h
16.01.2021 19:00 -2,6 C 71 % 1020,4 hPa 0,0 l/m 4,6 km/h N -7,3 C -2,6 C 13,3 km/h
16.01.2021 20:00 -3,3 C 78 % 1020,2 hPa 0,0 l/m 6,9 km/h N -6,6 C -4,0 C 17,3 km/h
16.01.2021 21:00 -3,8 C 83 % 1019,7 hPa 0,0 l/m 5,4 km/h N -6,3 C -3,8 C 15,7 km/h
16.01.2021 22:00 -3,7 C 83 % 1019,0 hPa 0,0 l/m 6,2 km/h N -6,1 C -3,7 C 17,7 km/h
16.01.2021 23:00 -3,6 C 83 % 1018,8 hPa 0,0 l/m 5,3 km/h N -6,0 C -3,6 C 15,7 km/h
17.01.2021 00:00 -3,4 C 81 % 1018,2 hPa 0,0 l/m 6,5 km/h N -6,1 C -3,7 C 19,7 km/h
17.01.2021 01:00 -3,0 C 74 % 1017,7 hPa 0,0 l/m 7,4 km/h N -7,0 C -4,0 C 19,3 km/h
17.01.2021 02:00 -2,6 C 68 % 1017,5 hPa 0,0 l/m 6,8 km/h N -7,7 C -3,1 C 20,9 km/h
17.01.2021 03:00 -2,2 C 65 % 1016,8 hPa 0,0 l/m 9,1 km/h N -7,8 C -5,0 C 20,5 km/h
17.01.2021 04:00 -2,2 C 65 % 1016,5 hPa 0,0 l/m 6,7 km/h N -7,9 C -2,8 C 17,7 km/h
17.01.2021 05:00 -2,3 C 66 % 1016,5 hPa 0,0 l/m 6,9 km/h N -7,9 C -3,0 C 16,9 km/h
17.01.2021 06:00 -2,3 C 68 % 1016,3 hPa 0,0 l/m 8,0 km/h N -7,4 C -4,0 C 20,5 km/h
17.01.2021 07:00 -2,4 C 69 % 1016,6 hPa 0,0 l/m 7,4 km/h N -7,3 C -3,5 C 18,9 km/h
17.01.2021 08:00 -2,4 C 69 % 1017,1 hPa 0,0 l/m 8,2 km/h N -7,3 C -4,3 C 21,3 km/h
17.01.2021 09:00 -2,3 C 69 % 1017,5 hPa 0,0 l/m 8,6 km/h N -7,2 C -4,6 C 20,1 km/h
17.01.2021 10:00 -2,5 C 72 % 1018,0 hPa 0,0 l/m 8,1 km/h N -6,8 C -4,4 C 19,3 km/h
17.01.2021 11:00 -2,2 C 73 % 1018,0 hPa 0,0 l/m 8,4 km/h N -6,5 C -4,3 C 19,3 km/h
17.01.2021 12:00 -2,0 C 71 % 1017,8 hPa 0,0 l/m 9,2 km/h N -6,6 C -4,9 C 18,9 km/h
17.01.2021 13:00 -1,6 C 68 % 1017,8 hPa 0,0 l/m 6,9 km/h N -6,7 C -2,7 C 16,9 km/h
17.01.2021 14:00 -1,9 C 71 % 1018,3 hPa 0,0 l/m 5,3 km/h N -6,4 C -1,9 C 11,7 km/h
17.01.2021 15:00 -1,9 C 74 % 1018,8 hPa 0,0 l/m 5,1 km/h N -5,9 C -1,9 C 14,5 km/h
17.01.2021 16:00 -2,0 C 73 % 1019,4 hPa 0,0 l/m 3,1 km/h N -6,1 C -2,0 C 9,3 km/h
17.01.2021 17:00 -2,0 C 73 % 1020,0 hPa 0,0 l/m 3,1 km/h N -6,3 C -2,0 C 10,5 km/h
17.01.2021 18:00 -2,1 C 72 % 1020,8 hPa 0,0 l/m 1,9 km/h N -6,4 C -2,1 C 8,4 km/h
17.01.2021 19:00 -2,2 C 73 % 1021,3 hPa 0,0 l/m 0,8 km/h N -6,4 C -2,2 C 7,2 km/h
17.01.2021 20:00 -2,1 C 71 % 1021,8 hPa 0,0 l/m 1,8 km/h N -6,6 C -2,1 C 8,9 km/h
17.01.2021 21:00 -2,2 C 70 % 1022,3 hPa 0,0 l/m 1,5 km/h N -6,9 C -2,2 C 8,9 km/h
17.01.2021 22:00 -2,2 C 67 % 1022,6 hPa 0,0 l/m 3,5 km/h N -7,6 C -2,2 C 11,7 km/h
17.01.2021 23:00 -2,1 C 64 % 1022,8 hPa 0,0 l/m 3,4 km/h N -8,1 C -2,1 C 12,5 km/h
Min-Datum _ 12.01.21 13.01.21 14.01.21 - 11.01.21 - 12.01.21 12.01.21 11.01.21
_ Min-Zeit 06:45 22:15 04:30 - 00:00 - 06:30 06:30 00:30
Minimum _ -8,6 C 57 % 1005,2 hPa - 0,0 km/h - -10,7 C -8,5 C 0,0 km/h
Max-Datum _ 12.01.21 11.01.21 11.01.21 12.01.21 13.01.21 - 12.01.21 12.01.21 13.01.21
_ Max-Zeit 20:45 00:15 10:45 21:30 13:15 - 19:30 20:45 16:00
Maximum _ 5,0 C 84 % 1024,0 hPa 0,5 l/m 15,9 km/h
N
- 1,8 C 5,0 C 46,7 km/h
N
Durchschnitt _ -0,7 C 75 % 1016,9 hPa #2,6 l/m 5,5 km/h N -4,6 C -1,7 C 16,0 km/h